Flight Track Log - Related Links

Times and Time Zones

All times are in EDT time to prevent confusion due to time zone crossing. See the CTL312 flight status page for this flight to view local times or setup timezone preferences in your user account.

Time Position Orientation Groundspeed Altitude Reporting Facility
EDT Latitude Longitude Course Direction KTS MPH feet Rate Location/Type
Mon 06:23:39 PM 41.5358 -81.6761 344° North 130 150 1,200  Level Cleveland Center
Mon 06:24:40 PM 41.5731 -81.6906 344° North 149 171 2,000 709 Climbing Cleveland Center
Mon 06:25:46 PM 41.6186 -81.7247 331° Northwest 170 196 2,700 589 Climbing Cleveland Center
Mon 06:26:32 PM 41.6433 -81.7556 317° Northwest 169 194 3,100 566 Climbing Cleveland Center
Mon 06:27:32 PM 41.6783 -81.7953 320° Northwest 169 194 3,700 650 Climbing Cleveland Center
Mon 06:28:32 PM 41.7114 -81.8347 318° Northwest 164 189 4,400 700 Climbing Cleveland Center
Mon 06:29:32 PM 41.7422 -81.8744 316° Northwest 159 183 5,100 600 Climbing Cleveland Center
Mon 06:30:32 PM 41.7772 -81.9142 320° Northwest 159 183 5,600 500 Climbing Cleveland Center
Mon 06:31:32 PM 41.8100 -81.9536 318° Northwest 159 183 6,100 250 Climbing Cleveland Center
Mon 06:32:32 PM 41.8428 -82.0019 312° West 164 189 6,100  Level Cleveland Center
Mon 06:33:32 PM 41.8775 -82.0528 313° West 175 201 6,100  Level Cleveland Center
Mon 06:34:32 PM 41.9189 -82.0900 326° Northwest 180 207 6,100 -50 Level Cleveland Center
Mon 06:35:32 PM 41.9556 -82.1383 316° Northwest 186 214 6,000  Descending Cleveland Center
Mon 06:36:32 PM 41.9967 -82.1814 322° Northwest 186 214 6,100 50 Climbing Cleveland Center
Mon 06:37:32 PM 42.0400 -82.2103 334° Northwest 181 208 6,100 50 Level Cleveland Center
Mon 06:38:32 PM 42.0792 -82.2561 319° Northwest 176 203 6,200 54 Climbing Cleveland Center
Mon 06:39:23 PM 42.1139 -82.2961 319° Northwest 187 215 6,200 -73 Level Cleveland Center
Mon 06:39:54 PM 42.1303 -82.3189 314° West 181 208 6,100 -86 Descending Cleveland Center
Mon 06:40:33 PM 42.1528 -82.3478 316° Northwest 186 214 6,100  Level Cleveland Center
Mon 06:41:32 PM 42.1939 -82.3908 322° Northwest 186 214 6,100  Level Cleveland Center
Mon 06:42:32 PM 42.2328 -82.4339 321° Northwest 186 214 6,100  Level Cleveland Center
Mon 06:43:32 PM 42.2736 -82.4828 318° Northwest 186 214 6,100  Level Cleveland Center
Mon 06:44:05 PM 42.2961 -82.5061 323° Northwest 186 214 6,100  Level Cleveland Center
Mon 06:45:12 PM 42.3433 -82.5553 322° Northwest 187 215 6,100  Level Cleveland Center
Mon 06:46:01 PM 42.3717 -82.5956 314° West 186 214 6,100  Level Cleveland Center
Mon 06:46:32 PM 42.3900 -82.6186 317° Northwest 186 214 6,100  Level Cleveland Center
Mon 06:47:08 PM 42.4125 -82.6417 323° Northwest 185 213 6,100  Level Cleveland Center
Mon 06:48:03 PM 42.4472 -82.6878 316° Northwest 181 208 6,100  Level Cleveland Center
Mon 06:49:10 PM 42.4900 -82.7400 318° Northwest 182 209 6,100  Level Cleveland Center
Mon 06:50:11 PM 42.5286 -82.7864 318° Northwest 181 208 6,100  Level Cleveland Center
Mon 06:51:12 PM 42.5633 -82.8300 317° Northwest 177 204 6,100  Level Cleveland Center
Mon 06:52:07 PM 42.6000 -82.8736 319° Northwest 179 206 6,100  Level Cleveland Center
Mon 06:53:08 PM 42.6386 -82.9200 319° Northwest 180 207 6,100  Level Cleveland Center
Mon 06:54:09 PM 42.6775 -82.9611 322° Northwest 180 207 6,100  Level Cleveland Center
Mon 06:55:09 PM 42.7161 -83.0078 318° Northwest 181 208 6,100  Level Cleveland Center
Mon 06:57:00 PM 42.6354 -83.0462 199° South  Level Estimated
Mon 07:04:00 PM 42.3298 -83.1909 199° South  Level Estimated
Mon 07:05:00 PM 42.2861 -83.2114 199° South  Level Estimated
Mon 07:06:00 PM 42.2424 -83.2319 199° South  Level Estimated
Mon 07:07:00 PM 42.1987 -83.2524 199° South  Level Estimated
Mon 07:08:00 PM 42.1550 -83.2729 199° South  Level Estimated
Mon 07:09:00 PM 42.1114 -83.2933 199° South  Level Estimated
Mon 07:10:00 PM 42.0677 -83.3137 199° South  Level Estimated
Mon 07:11:00 PM 42.0240 -83.3341 199° South  Level Estimated
Mon 07:12:00 PM 41.9803 -83.3544 199° South  Level Estimated
Mon 07:13:00 PM 41.9366 -83.3748 199° South  Level Estimated
Mon 07:14:00 PM 41.8929 -83.3951 199° South  Level Estimated
Mon 07:15:00 PM 41.8492 -83.4153 199° South  Level Estimated
Mon 07:16:00 PM 41.8054 -83.4355 199° South  Level Estimated
Mon 07:17:00 PM 41.7617 -83.4558 199° South  Level Estimated
Mon 07:18:00 PM 41.7180 -83.4759 199° South  Level Estimated
Mon 07:19:00 PM 41.6743 -83.4961 199° South  Level Estimated
Mon 07:20:00 PM 41.6306 -83.5162 199° South  Level Estimated
Mon 07:21:00 PM 41.5868 -83.5363 199° South  Level Estimated
Mon 07:22:00 PM 41.5431 -83.5564 199° South  Level Estimated
Mon 07:23:00 PM 41.4994 -83.5764 199° South  Level Estimated
Mon 07:24:00 PM 41.4556 -83.5965 199° South  Level Estimated
Mon 07:25:00 PM 41.4119 -83.6164 199° South  Level Estimated
Mon 07:26:00 PM 41.3681 -83.6364 199° South  Level Estimated
Mon 07:27:00 PM 41.3244 -83.6563 199° South  Level Estimated
Mon 07:28:00 PM 41.2806 -83.6762 199° South  Level Estimated
Mon 07:29:00 PM 41.2368 -83.6961 199° South  Level Estimated
Mon 07:30:00 PM 41.1931 -83.7160 199° South  Level Estimated
Mon 07:31:00 PM 41.1493 -83.7358 199° South  Level Estimated
Mon 07:32:00 PM 41.1055 -83.7556 199° South  Level Estimated
Mon 07:33:00 PM 41.0618 -83.7754 199° South  Level Estimated
Mon 07:34:00 PM 41.0180 -83.7952 199° South  Level Estimated
Mon 07:35:00 PM 40.9742 -83.8149 199° South  Level Estimated
Mon 07:36:00 PM 40.9304 -83.8346 199° South  Level Estimated
Mon 07:37:00 PM 40.8866 -83.8542 199° South  Level Estimated
Mon 07:38:00 PM 40.8428 -83.8739 199° South  Level Estimated
Mon 07:39:00 PM 40.7991 -83.8935 199° South  Level Estimated
Mon 07:40:00 PM 40.7553 -83.9131 199° South  Level Estimated
Mon 07:41:00 PM 40.7115 -83.9327 199° South  Level Estimated
Mon 07:42:00 PM 40.6677 -83.9522 199° South  Level Estimated
Mon 07:43:00 PM 40.6239 -83.9717 199° South  Level Estimated
Mon 07:44:00 PM 40.5800 -83.9912 199° South  Level Estimated
Mon 07:45:00 PM 40.5362 -84.0107 199° South  Level Estimated
Mon 07:46:00 PM 40.4924 -84.0302 199° South  Level Estimated
Mon 07:47:00 PM 40.4486 -84.0496 199° South  Level Estimated
Mon 07:48:00 PM 40.4048 -84.0690 199° South  Level Estimated
Mon 07:49:00 PM 40.3609 -84.0883 199° South  Level Estimated
Mon 07:50:00 PM 40.3171 -84.1077 199° South  Level Estimated
Mon 07:51:00 PM 40.2733 -84.1270 199° South  Level Estimated
Mon 07:52:00 PM 40.2295 -84.1463 199° South  Level Estimated
Mon 07:53:00 PM 40.1856 -84.1656 199° South  Level Estimated
Mon 07:54:00 PM 40.1418 -84.1848 199° South  Level Estimated
Mon 07:55:00 PM 40.0979 -84.2040 199° South  Level Estimated
Mon 07:56:00 PM 40.0541 -84.2232 199° South  Level Estimated
Mon 07:57:00 PM 40.0102 -84.2424 199° South  Level Estimated
Mon 07:58:00 PM 39.9664 -84.2615 198° South  Level Estimated
Mon 07:59:00 PM 39.9225 -84.2806 198° South  Level Estimated
Mon 08:00:00 PM 39.8787 -84.2997 198° South  Level Estimated
Mon 08:01:00 PM 39.8348 -84.3188 198° South  Level Estimated
Mon 08:02:00 PM 39.7909 -84.3378 198° South  Level Estimated
Mon 08:03:00 PM 39.7471 -84.3568 198° South  Level Estimated
Mon 08:04:00 PM 39.7032 -84.3758 198° South  Level Estimated
Mon 08:05:00 PM 39.6593 -84.3948 198° South  Level Estimated
Mon 08:06:00 PM 39.6154 -84.4138 198° South  Level Estimated

Login

Don't have an account? Register now (free) for customized features, flight alerts, and more!